sensor_id;sensor_type;location;lat;lon;timestamp;P1;durP1;ratioP1;P2;durP2;ratioP2
32108;SDS011;18624;50.042;8.436;2023-02-01T00:01:07;5.03;;;3.72;;
32108;SDS011;18624;50.042;8.436;2023-02-01T00:03:34;4.40;;;3.40;;
32108;SDS011;18624;50.042;8.436;2023-02-01T00:06:01;5.43;;;3.70;;
32108;SDS011;18624;50.042;8.436;2023-02-01T00:08:27;3.42;;;2.90;;
32108;SDS011;18624;50.042;8.436;2023-02-01T00:10:58;6.57;;;3.60;;
32108;SDS011;18624;50.042;8.436;2023-02-01T00:13:27;4.82;;;3.80;;
32108;SDS011;18624;50.042;8.436;2023-02-01T00:16:01;5.55;;;3.75;;
32108;SDS011;18624;50.042;8.436;2023-02-01T00:18:32;5.10;;;4.00;;
32108;SDS011;18624;50.042;8.436;2023-02-01T00:20:59;4.15;;;3.45;;
32108;SDS011;18624;50.042;8.436;2023-02-01T00:23:25;6.45;;;3.55;;
32108;SDS011;18624;50.042;8.436;2023-02-01T00:25:52;4.28;;;3.88;;
32108;SDS011;18624;50.042;8.436;2023-02-01T00:28:18;4.25;;;3.88;;
32108;SDS011;18624;50.042;8.436;2023-02-01T00:30:45;4.60;;;4.00;;
32108;SDS011;18624;50.042;8.436;2023-02-01T00:33:11;3.63;;;3.33;;
32108;SDS011;18624;50.042;8.436;2023-02-01T00:35:37;4.35;;;3.95;;
32108;SDS011;18624;50.042;8.436;2023-02-01T00:38:04;6.43;;;4.32;;
32108;SDS011;18624;50.042;8.436;2023-02-01T00:40:30;4.53;;;4.13;;
32108;SDS011;18624;50.042;8.436;2023-02-01T00:42:56;5.10;;;4.70;;
32108;SDS011;18624;50.042;8.436;2023-02-01T00:45:23;6.88;;;4.90;;
32108;SDS011;18624;50.042;8.436;2023-02-01T00:47:50;5.15;;;4.13;;
32108;SDS011;18624;50.042;8.436;2023-02-01T00:50:16;4.57;;;4.07;;
32108;SDS011;18624;50.042;8.436;2023-02-01T00:52:43;5.28;;;4.78;;
32108;SDS011;18624;50.042;8.436;2023-02-01T00:55:09;5.07;;;4.55;;
32108;SDS011;18624;50.042;8.436;2023-02-01T00:57:36;5.93;;;4.78;;
32108;SDS011;18624;50.042;8.436;2023-02-01T01:00:02;5.57;;;4.43;;
32108;SDS011;18624;50.042;8.436;2023-02-01T01:02:30;6.25;;;4.47;;
32108;SDS011;18624;50.042;8.436;2023-02-01T01:04:56;6.75;;;4.85;;
32108;SDS011;18624;50.042;8.436;2023-02-01T01:07:23;7.43;;;5.20;;
32108;SDS011;18624;50.042;8.436;2023-02-01T01:09:49;5.70;;;4.70;;
32108;SDS011;18624;50.042;8.436;2023-02-01T01:12:16;4.32;;;3.92;;
32108;SDS011;18624;50.042;8.436;2023-02-01T01:14:42;5.60;;;4.93;;
32108;SDS011;18624;50.042;8.436;2023-02-01T01:17:08;7.32;;;4.97;;
32108;SDS011;18624;50.042;8.436;2023-02-01T01:19:35;7.55;;;5.18;;
32108;SDS011;18624;50.042;8.436;2023-02-01T01:22:01;10.10;;;5.75;;
32108;SDS011;18624;50.042;8.436;2023-02-01T01:24:28;7.20;;;5.22;;
32108;SDS011;18624;50.042;8.436;2023-02-01T01:26:54;7.45;;;5.13;;
32108;SDS011;18624;50.042;8.436;2023-02-01T01:29:20;6.60;;;5.82;;
32108;SDS011;18624;50.042;8.436;2023-02-01T01:31:47;5.85;;;4.70;;
32108;SDS011;18624;50.042;8.436;2023-02-01T01:34:13;7.57;;;4.72;;
32108;SDS011;18624;50.042;8.436;2023-02-01T01:36:40;7.45;;;5.40;;
32108;SDS011;18624;50.042;8.436;2023-02-01T01:39:06;9.68;;;5.75;;
32108;SDS011;18624;50.042;8.436;2023-02-01T01:41:33;7.65;;;5.78;;
32108;SDS011;18624;50.042;8.436;2023-02-01T01:47:14;6.47;;;5.82;;
32108;SDS011;18624;50.042;8.436;2023-02-01T01:49:42;6.85;;;5.72;;
32108;SDS011;18624;50.042;8.436;2023-02-01T01:52:10;6.00;;;5.40;;
32108;SDS011;18624;50.042;8.436;2023-02-01T01:54:45;6.65;;;5.68;;
32108;SDS011;18624;50.042;8.436;2023-02-01T01:57:16;9.18;;;6.15;;
32108;SDS011;18624;50.042;8.436;2023-02-01T01:59:48;6.88;;;5.93;;
32108;SDS011;18624;50.042;8.436;2023-02-01T02:02:20;6.57;;;5.80;;
32108;SDS011;18624;50.042;8.436;2023-02-01T02:04:46;9.10;;;6.85;;
32108;SDS011;18624;50.042;8.436;2023-02-01T02:07:16;7.43;;;6.65;;
32108;SDS011;18624;50.042;8.436;2023-02-01T02:09:46;8.27;;;6.28;;
32108;SDS011;18624;50.042;8.436;2023-02-01T02:12:26;10.10;;;6.63;;
32108;SDS011;18624;50.042;8.436;2023-02-01T02:14:52;8.52;;;7.65;;
32108;SDS011;18624;50.042;8.436;2023-02-01T02:17:34;8.27;;;6.75;;
32108;SDS011;18624;50.042;8.436;2023-02-01T02:20:12;9.27;;;6.60;;
32108;SDS011;18624;50.042;8.436;2023-02-01T02:31:54;9.25;;;7.45;;
32108;SDS011;18624;50.042;8.436;2023-02-01T02:34:32;10.07;;;6.25;;
32108;SDS011;18624;50.042;8.436;2023-02-01T02:39:55;12.68;;;6.38;;
32108;SDS011;18624;50.042;8.436;2023-02-01T02:45:23;9.68;;;6.13;;
32108;SDS011;18624;50.042;8.436;2023-02-01T02:48:29;9.48;;;6.40;;
32108;SDS011;18624;50.042;8.436;2023-02-01T02:51:13;8.70;;;6.60;;
32108;SDS011;18624;50.042;8.436;2023-02-01T02:59:46;7.60;;;6.07;;
32108;SDS011;18624;50.042;8.436;2023-02-01T03:02:33;7.60;;;5.65;;
32108;SDS011;18624;50.042;8.436;2023-02-01T03:05:19;6.75;;;5.57;;
32108;SDS011;18624;50.042;8.436;2023-02-01T03:07:57;8.82;;;6.40;;
32108;SDS011;18624;50.042;8.436;2023-02-01T03:10:45;6.50;;;5.82;;
32108;SDS011;18624;50.042;8.436;2023-02-01T03:13:27;6.57;;;5.28;;
32108;SDS011;18624;50.042;8.436;2023-02-01T03:16:02;7.07;;;5.22;;
32108;SDS011;18624;50.042;8.436;2023-02-01T03:20:57;9.02;;;5.22;;
32108;SDS011;18624;50.042;8.436;2023-02-01T03:23:28;6.95;;;5.75;;
32108;SDS011;18624;50.042;8.436;2023-02-01T03:25:59;9.50;;;5.70;;
32108;SDS011;18624;50.042;8.436;2023-02-01T03:28:29;7.43;;;5.70;;
32108;SDS011;18624;50.042;8.436;2023-02-01T03:30:59;8.20;;;5.68;;
32108;SDS011;18624;50.042;8.436;2023-02-01T03:33:27;8.30;;;6.22;;
32108;SDS011;18624;50.042;8.436;2023-02-01T03:36:09;8.18;;;5.57;;
32108;SDS011;18624;50.042;8.436;2023-02-01T03:39:12;7.97;;;6.00;;
32108;SDS011;18624;50.042;8.436;2023-02-01T03:42:00;8.00;;;6.63;;
32108;SDS011;18624;50.042;8.436;2023-02-01T03:44:38;7.18;;;5.63;;
32108;SDS011;18624;50.042;8.436;2023-02-01T03:47:16;6.45;;;5.75;;
32108;SDS011;18624;50.042;8.436;2023-02-01T03:49:51;10.35;;;5.57;;
32108;SDS011;18624;50.042;8.436;2023-02-01T03:52:27;6.20;;;5.10;;
32108;SDS011;18624;50.042;8.436;2023-02-01T03:54:56;5.85;;;4.80;;
32108;SDS011;18624;50.042;8.436;2023-02-01T03:57:26;6.82;;;5.20;;
32108;SDS011;18624;50.042;8.436;2023-02-01T04:00:03;6.53;;;4.70;;
32108;SDS011;18624;50.042;8.436;2023-02-01T04:02:40;8.23;;;5.57;;
32108;SDS011;18624;50.042;8.436;2023-02-01T04:05:07;7.25;;;5.18;;
32108;SDS011;18624;50.042;8.436;2023-02-01T04:07:34;7.50;;;5.55;;
32108;SDS011;18624;50.042;8.436;2023-02-01T04:10:00;6.03;;;5.43;;
32108;SDS011;18624;50.042;8.436;2023-02-01T04:12:26;10.50;;;5.70;;
32108;SDS011;18624;50.042;8.436;2023-02-01T04:14:53;6.05;;;4.97;;
32108;SDS011;18624;50.042;8.436;2023-02-01T04:17:19;8.15;;;5.50;;
32108;SDS011;18624;50.042;8.436;2023-02-01T04:19:46;7.90;;;5.43;;
32108;SDS011;18624;50.042;8.436;2023-02-01T04:22:12;7.53;;;5.32;;
32108;SDS011;18624;50.042;8.436;2023-02-01T04:24:39;7.43;;;4.93;;
32108;SDS011;18624;50.042;8.436;2023-02-01T04:27:05;7.75;;;5.60;;
32108;SDS011;18624;50.042;8.436;2023-02-01T04:29:31;7.78;;;5.22;;
32108;SDS011;18624;50.042;8.436;2023-02-01T04:31:59;9.98;;;5.70;;
32108;SDS011;18624;50.042;8.436;2023-02-01T04:34:25;9.48;;;5.28;;
32108;SDS011;18624;50.042;8.436;2023-02-01T04:36:52;8.13;;;5.88;;
32108;SDS011;18624;50.042;8.436;2023-02-01T04:39:18;8.40;;;5.90;;
32108;SDS011;18624;50.042;8.436;2023-02-01T04:41:45;9.10;;;4.95;;
32108;SDS011;18624;50.042;8.436;2023-02-01T04:44:15;10.75;;;5.85;;
32108;SDS011;18624;50.042;8.436;2023-02-01T04:46:43;9.63;;;4.70;;
32108;SDS011;18624;50.042;8.436;2023-02-01T04:49:11;8.75;;;4.85;;
32108;SDS011;18624;50.042;8.436;2023-02-01T04:51:39;6.50;;;4.53;;
32108;SDS011;18624;50.042;8.436;2023-02-01T04:54:06;8.52;;;6.03;;
32108;SDS011;18624;50.042;8.436;2023-02-01T04:56:34;5.50;;;4.60;;
32108;SDS011;18624;50.042;8.436;2023-02-01T04:59:03;6.85;;;4.18;;
32108;SDS011;18624;50.042;8.436;2023-02-01T05:01:31;8.13;;;4.85;;
32108;SDS011;18624;50.042;8.436;2023-02-01T05:03:58;5.75;;;4.22;;
32108;SDS011;18624;50.042;8.436;2023-02-01T05:06:24;10.02;;;4.70;;
32108;SDS011;18624;50.042;8.436;2023-02-01T05:08:50;6.93;;;4.57;;
32108;SDS011;18624;50.042;8.436;2023-02-01T05:11:17;9.43;;;4.97;;
32108;SDS011;18624;50.042;8.436;2023-02-01T05:14:02;5.85;;;3.70;;
32108;SDS011;18624;50.042;8.436;2023-02-01T05:16:28;6.78;;;4.07;;
32108;SDS011;18624;50.042;8.436;2023-02-01T05:18:55;4.88;;;4.28;;
32108;SDS011;18624;50.042;8.436;2023-02-01T05:21:21;6.38;;;4.20;;
32108;SDS011;18624;50.042;8.436;2023-02-01T05:23:48;8.23;;;4.88;;
32108;SDS011;18624;50.042;8.436;2023-02-01T05:26:33;7.00;;;5.13;;
32108;SDS011;18624;50.042;8.436;2023-02-01T05:29:00;6.38;;;4.60;;
32108;SDS011;18624;50.042;8.436;2023-02-01T05:31:26;4.97;;;3.92;;
32108;SDS011;18624;50.042;8.436;2023-02-01T05:33:53;8.15;;;3.80;;
32108;SDS011;18624;50.042;8.436;2023-02-01T05:36:19;4.60;;;3.78;;
32108;SDS011;18624;50.042;8.436;2023-02-01T05:38:46;6.53;;;3.47;;
32108;SDS011;18624;50.042;8.436;2023-02-01T05:41:12;5.20;;;3.10;;
32108;SDS011;18624;50.042;8.436;2023-02-01T05:43:38;6.07;;;3.65;;
32108;SDS011;18624;50.042;8.436;2023-02-01T05:46:05;6.75;;;3.88;;
32108;SDS011;18624;50.042;8.436;2023-02-01T05:48:32;8.25;;;4.47;;
32108;SDS011;18624;50.042;8.436;2023-02-01T05:50:58;9.25;;;3.55;;
32108;SDS011;18624;50.042;8.436;2023-02-01T05:53:24;8.82;;;4.22;;
32108;SDS011;18624;50.042;8.436;2023-02-01T05:55:51;11.80;;;4.07;;
32108;SDS011;18624;50.042;8.436;2023-02-01T05:58:17;10.40;;;3.03;;
32108;SDS011;18624;50.042;8.436;2023-02-01T06:00:44;4.95;;;2.72;;
32108;SDS011;18624;50.042;8.436;2023-02-01T06:03:10;5.93;;;3.35;;
32108;SDS011;18624;50.042;8.436;2023-02-01T06:05:36;14.85;;;3.55;;
32108;SDS011;18624;50.042;8.436;2023-02-01T06:08:03;11.05;;;3.88;;
32108;SDS011;18624;50.042;8.436;2023-02-01T06:10:30;7.03;;;4.20;;
32108;SDS011;18624;50.042;8.436;2023-02-01T06:12:56;10.38;;;4.57;;
32108;SDS011;18624;50.042;8.436;2023-02-01T06:15:22;11.05;;;3.75;;
32108;SDS011;18624;50.042;8.436;2023-02-01T06:17:49;10.13;;;3.42;;
32108;SDS011;18624;50.042;8.436;2023-02-01T06:20:15;6.97;;;3.13;;
32108;SDS011;18624;50.042;8.436;2023-02-01T06:22:42;8.82;;;3.33;;
32108;SDS011;18624;50.042;8.436;2023-02-01T06:25:09;8.05;;;3.92;;
32108;SDS011;18624;50.042;8.436;2023-02-01T06:27:36;8.20;;;2.92;;
32108;SDS011;18624;50.042;8.436;2023-02-01T06:30:04;5.68;;;3.08;;
32108;SDS011;18624;50.042;8.436;2023-02-01T06:32:32;7.45;;;2.65;;
32108;SDS011;18624;50.042;8.436;2023-02-01T06:34:59;10.40;;;3.20;;
32108;SDS011;18624;50.042;8.436;2023-02-01T06:37:26;10.20;;;3.10;;
32108;SDS011;18624;50.042;8.436;2023-02-01T06:39:55;4.93;;;2.70;;
32108;SDS011;18624;50.042;8.436;2023-02-01T06:42:21;11.10;;;4.30;;
32108;SDS011;18624;50.042;8.436;2023-02-01T06:44:49;6.25;;;3.13;;
32108;SDS011;18624;50.042;8.436;2023-02-01T06:47:15;8.48;;;3.65;;
32108;SDS011;18624;50.042;8.436;2023-02-01T06:49:41;10.48;;;4.10;;
32108;SDS011;18624;50.042;8.436;2023-02-01T06:52:08;10.25;;;4.22;;
32108;SDS011;18624;50.042;8.436;2023-02-01T06:54:34;11.68;;;3.92;;
32108;SDS011;18624;50.042;8.436;2023-02-01T06:57:03;10.25;;;5.03;;
32108;SDS011;18624;50.042;8.436;2023-02-01T06:59:29;8.10;;;4.55;;
32108;SDS011;18624;50.042;8.436;2023-02-01T07:01:56;13.88;;;3.97;;
32108;SDS011;18624;50.042;8.436;2023-02-01T07:04:23;9.73;;;3.42;;
32108;SDS011;18624;50.042;8.436;2023-02-01T07:06:49;9.45;;;3.55;;
32108;SDS011;18624;50.042;8.436;2023-02-01T07:09:15;9.27;;;3.92;;
32108;SDS011;18624;50.042;8.436;2023-02-01T07:11:42;9.38;;;3.05;;
32108;SDS011;18624;50.042;8.436;2023-02-01T07:14:10;8.05;;;3.38;;
32108;SDS011;18624;50.042;8.436;2023-02-01T07:16:37;8.25;;;3.20;;
32108;SDS011;18624;50.042;8.436;2023-02-01T07:19:03;11.13;;;4.05;;
32108;SDS011;18624;50.042;8.436;2023-02-01T07:21:30;9.25;;;3.20;;
32108;SDS011;18624;50.042;8.436;2023-02-01T07:23:58;10.70;;;3.58;;
32108;SDS011;18624;50.042;8.436;2023-02-01T07:26:25;12.02;;;2.95;;
32108;SDS011;18624;50.042;8.436;2023-02-01T07:28:51;10.68;;;4.05;;
32108;SDS011;18624;50.042;8.436;2023-02-01T07:31:18;9.52;;;2.83;;
32108;SDS011;18624;50.042;8.436;2023-02-01T07:33:48;6.63;;;2.80;;
32108;SDS011;18624;50.042;8.436;2023-02-01T07:36:17;11.27;;;3.20;;
32108;SDS011;18624;50.042;8.436;2023-02-01T07:38:44;8.88;;;4.30;;
32108;SDS011;18624;50.042;8.436;2023-02-01T07:41:13;8.75;;;2.97;;
32108;SDS011;18624;50.042;8.436;2023-02-01T07:43:40;9.73;;;3.53;;
32108;SDS011;18624;50.042;8.436;2023-02-01T07:46:06;11.35;;;4.25;;
32108;SDS011;18624;50.042;8.436;2023-02-01T07:48:33;11.25;;;3.38;;
32108;SDS011;18624;50.042;8.436;2023-02-01T07:51:01;5.75;;;2.90;;
32108;SDS011;18624;50.042;8.436;2023-02-01T07:53:28;6.65;;;3.03;;
32108;SDS011;18624;50.042;8.436;2023-02-01T07:55:56;11.70;;;4.90;;
32108;SDS011;18624;50.042;8.436;2023-02-01T07:58:23;10.48;;;2.58;;
32108;SDS011;18624;50.042;8.436;2023-02-01T08:00:50;13.20;;;3.03;;
32108;SDS011;18624;50.042;8.436;2023-02-01T08:03:35;10.90;;;3.92;;
32108;SDS011;18624;50.042;8.436;2023-02-01T08:06:02;7.13;;;2.92;;
32108;SDS011;18624;50.042;8.436;2023-02-01T08:08:29;13.75;;;4.68;;
32108;SDS011;18624;50.042;8.436;2023-02-01T08:10:59;8.20;;;3.22;;
32108;SDS011;18624;50.042;8.436;2023-02-01T08:13:26;8.02;;;2.78;;
32108;SDS011;18624;50.042;8.436;2023-02-01T08:15:57;7.88;;;3.00;;
32108;SDS011;18624;50.042;8.436;2023-02-01T08:18:25;7.43;;;3.40;;
32108;SDS011;18624;50.042;8.436;2023-02-01T08:20:51;8.57;;;3.45;;
32108;SDS011;18624;50.042;8.436;2023-02-01T08:23:18;9.80;;;3.97;;
32108;SDS011;18624;50.042;8.436;2023-02-01T08:25:45;13.18;;;3.60;;
32108;SDS011;18624;50.042;8.436;2023-02-01T08:28:12;10.82;;;3.15;;
32108;SDS011;18624;50.042;8.436;2023-02-01T08:30:39;8.95;;;2.78;;
32108;SDS011;18624;50.042;8.436;2023-02-01T08:33:05;16.67;;;4.80;;
32108;SDS011;18624;50.042;8.436;2023-02-01T08:35:35;7.72;;;3.80;;
32108;SDS011;18624;50.042;8.436;2023-02-01T08:38:09;8.77;;;3.28;;
32108;SDS011;18624;50.042;8.436;2023-02-01T08:40:36;14.35;;;3.03;;
32108;SDS011;18624;50.042;8.436;2023-02-01T08:43:02;11.05;;;3.17;;
32108;SDS011;18624;50.042;8.436;2023-02-01T08:45:29;11.50;;;3.58;;
32108;SDS011;18624;50.042;8.436;2023-02-01T08:47:56;11.40;;;4.82;;
32108;SDS011;18624;50.042;8.436;2023-02-01T08:50:23;11.93;;;4.03;;
32108;SDS011;18624;50.042;8.436;2023-02-01T08:52:51;11.73;;;3.47;;
32108;SDS011;18624;50.042;8.436;2023-02-01T08:55:18;10.07;;;3.88;;
32108;SDS011;18624;50.042;8.436;2023-02-01T08:57:45;12.15;;;3.67;;
32108;SDS011;18624;50.042;8.436;2023-02-01T09:00:13;11.63;;;3.22;;
32108;SDS011;18624;50.042;8.436;2023-02-01T09:02:41;13.20;;;3.65;;
32108;SDS011;18624;50.042;8.436;2023-02-01T09:05:08;7.10;;;2.30;;
32108;SDS011;18624;50.042;8.436;2023-02-01T09:07:36;8.50;;;3.60;;
32108;SDS011;18624;50.042;8.436;2023-02-01T09:10:03;9.23;;;3.30;;
32108;SDS011;18624;50.042;8.436;2023-02-01T09:12:31;8.65;;;3.40;;
32108;SDS011;18624;50.042;8.436;2023-02-01T09:14:59;7.93;;;2.42;;
32108;SDS011;18624;50.042;8.436;2023-02-01T09:17:26;13.48;;;3.92;;
32108;SDS011;18624;50.042;8.436;2023-02-01T09:19:54;9.85;;;3.17;;
32108;SDS011;18624;50.042;8.436;2023-02-01T09:22:21;11.32;;;2.72;;
32108;SDS011;18624;50.042;8.436;2023-02-01T09:24:47;6.13;;;3.03;;
32108;SDS011;18624;50.042;8.436;2023-02-01T09:27:14;11.65;;;3.50;;
32108;SDS011;18624;50.042;8.436;2023-02-01T09:29:40;10.80;;;2.80;;
32108;SDS011;18624;50.042;8.436;2023-02-01T09:32:07;11.95;;;2.67;;
32108;SDS011;18624;50.042;8.436;2023-02-01T09:34:34;6.35;;;2.30;;
32108;SDS011;18624;50.042;8.436;2023-02-01T09:37:00;8.68;;;3.30;;
32108;SDS011;18624;50.042;8.436;2023-02-01T09:39:27;9.95;;;3.60;;
32108;SDS011;18624;50.042;8.436;2023-02-01T09:47:17;15.30;;;3.10;;
32108;SDS011;18624;50.042;8.436;2023-02-01T09:50:00;11.02;;;3.47;;
32108;SDS011;18624;50.042;8.436;2023-02-01T09:55:41;7.10;;;2.83;;
32108;SDS011;18624;50.042;8.436;2023-02-01T09:58:14;11.52;;;3.17;;
32108;SDS011;18624;50.042;8.436;2023-02-01T10:00:53;6.47;;;3.10;;
32108;SDS011;18624;50.042;8.436;2023-02-01T10:03:27;9.00;;;2.95;;
32108;SDS011;18624;50.042;8.436;2023-02-01T10:06:06;8.48;;;2.75;;
32108;SDS011;18624;50.042;8.436;2023-02-01T10:14:11;8.38;;;1.88;;
32108;SDS011;18624;50.042;8.436;2023-02-01T10:19:54;8.95;;;3.00;;
32108;SDS011;18624;50.042;8.436;2023-02-01T10:23:25;8.90;;;2.33;;
32108;SDS011;18624;50.042;8.436;2023-02-01T10:26:02;9.02;;;2.20;;
32108;SDS011;18624;50.042;8.436;2023-02-01T10:28:54;8.43;;;3.70;;
32108;SDS011;18624;50.042;8.436;2023-02-01T10:31:24;17.33;;;3.55;;
32108;SDS011;18624;50.042;8.436;2023-02-01T10:33:55;8.43;;;2.75;;
32108;SDS011;18624;50.042;8.436;2023-02-01T10:39:08;6.95;;;2.60;;
32108;SDS011;18624;50.042;8.436;2023-02-01T10:41:38;10.93;;;2.70;;
32108;SDS011;18624;50.042;8.436;2023-02-01T10:44:09;12.50;;;3.47;;
32108;SDS011;18624;50.042;8.436;2023-02-01T10:46:39;7.07;;;2.33;;
32108;SDS011;18624;50.042;8.436;2023-02-01T10:49:08;6.93;;;2.08;;
32108;SDS011;18624;50.042;8.436;2023-02-01T10:51:45;7.75;;;2.50;;
32108;SDS011;18624;50.042;8.436;2023-02-01T10:54:19;10.68;;;2.55;;
32108;SDS011;18624;50.042;8.436;2023-02-01T10:56:48;9.98;;;3.15;;
32108;SDS011;18624;50.042;8.436;2023-02-01T10:59:17;8.68;;;2.83;;
32108;SDS011;18624;50.042;8.436;2023-02-01T11:01:45;7.88;;;3.03;;
32108;SDS011;18624;50.042;8.436;2023-02-01T11:04:20;10.50;;;3.00;;
32108;SDS011;18624;50.042;8.436;2023-02-01T11:07:03;15.43;;;5.25;;
32108;SDS011;18624;50.042;8.436;2023-02-01T11:12:04;7.57;;;3.05;;
32108;SDS011;18624;50.042;8.436;2023-02-01T11:14:35;8.20;;;3.00;;
32108;SDS011;18624;50.042;8.436;2023-02-01T11:19:47;7.60;;;2.75;;
32108;SDS011;18624;50.042;8.436;2023-02-01T11:22:24;9.48;;;2.92;;
32108;SDS011;18624;50.042;8.436;2023-02-01T11:24:53;9.27;;;2.33;;
32108;SDS011;18624;50.042;8.436;2023-02-01T11:27:20;14.63;;;3.90;;
32108;SDS011;18624;50.042;8.436;2023-02-01T11:29:54;7.80;;;2.90;;
32108;SDS011;18624;50.042;8.436;2023-02-01T11:32:25;7.97;;;2.78;;
32108;SDS011;18624;50.042;8.436;2023-02-01T11:34:57;8.18;;;2.72;;
32108;SDS011;18624;50.042;8.436;2023-02-01T11:37:37;9.20;;;3.03;;
32108;SDS011;18624;50.042;8.436;2023-02-01T11:40:23;8.38;;;3.33;;
32108;SDS011;18624;50.042;8.436;2023-02-01T11:42:54;8.93;;;2.83;;
32108;SDS011;18624;50.042;8.436;2023-02-01T11:45:28;7.90;;;3.15;;
32108;SDS011;18624;50.042;8.436;2023-02-01T11:48:00;10.80;;;3.03;;
32108;SDS011;18624;50.042;8.436;2023-02-01T11:55:52;9.73;;;3.08;;
32108;SDS011;18624;50.042;8.436;2023-02-01T12:04:01;11.63;;;3.08;;
32108;SDS011;18624;50.042;8.436;2023-02-01T12:12:24;11.98;;;4.13;;
32108;SDS011;18624;50.042;8.436;2023-02-01T12:22:44;11.38;;;4.35;;
32108;SDS011;18624;50.042;8.436;2023-02-01T12:25:53;11.88;;;3.28;;
32108;SDS011;18624;50.042;8.436;2023-02-01T12:40:17;13.60;;;3.15;;
32108;SDS011;18624;50.042;8.436;2023-02-01T12:45:49;12.43;;;2.95;;
32108;SDS011;18624;50.042;8.436;2023-02-01T12:48:29;9.40;;;2.50;;
32108;SDS011;18624;50.042;8.436;2023-02-01T12:51:21;7.20;;;2.40;;
32108;SDS011;18624;50.042;8.436;2023-02-01T12:53:55;5.55;;;2.22;;
32108;SDS011;18624;50.042;8.436;2023-02-01T12:56:36;10.88;;;3.33;;
32108;SDS011;18624;50.042;8.436;2023-02-01T12:59:21;11.23;;;3.97;;
32108;SDS011;18624;50.042;8.436;2023-02-01T13:02:04;11.73;;;2.63;;
32108;SDS011;18624;50.042;8.436;2023-02-01T13:05:04;7.38;;;2.05;;
32108;SDS011;18624;50.042;8.436;2023-02-01T13:07:50;10.85;;;3.33;;
32108;SDS011;18624;50.042;8.436;2023-02-01T13:12:54;8.43;;;2.58;;
32108;SDS011;18624;50.042;8.436;2023-02-01T13:15:40;4.68;;;1.73;;
32108;SDS011;18624;50.042;8.436;2023-02-01T13:18:14;9.82;;;2.13;;
32108;SDS011;18624;50.042;8.436;2023-02-01T13:23:28;7.40;;;2.70;;
32108;SDS011;18624;50.042;8.436;2023-02-01T13:25:59;9.40;;;3.08;;
32108;SDS011;18624;50.042;8.436;2023-02-01T13:28:27;10.07;;;3.63;;
32108;SDS011;18624;50.042;8.436;2023-02-01T13:31:00;9.85;;;3.00;;
32108;SDS011;18624;50.042;8.436;2023-02-01T13:36:30;8.85;;;2.88;;
32108;SDS011;18624;50.042;8.436;2023-02-01T13:39:19;6.78;;;1.77;;
32108;SDS011;18624;50.042;8.436;2023-02-01T13:42:01;13.55;;;3.17;;
32108;SDS011;18624;50.042;8.436;2023-02-01T13:44:37;9.70;;;2.45;;
32108;SDS011;18624;50.042;8.436;2023-02-01T13:49:51;9.25;;;2.05;;
32108;SDS011;18624;50.042;8.436;2023-02-01T13:57:48;7.65;;;2.30;;
32108;SDS011;18624;50.042;8.436;2023-02-01T14:26:43;8.88;;;2.55;;
32108;SDS011;18624;50.042;8.436;2023-02-01T14:44:48;12.93;;;2.65;;
32108;SDS011;18624;50.042;8.436;2023-02-01T14:47:29;11.05;;;2.22;;
32108;SDS011;18624;50.042;8.436;2023-02-01T14:52:37;8.52;;;2.67;;
32108;SDS011;18624;50.042;8.436;2023-02-01T14:55:14;8.63;;;2.25;;
32108;SDS011;18624;50.042;8.436;2023-02-01T14:57:45;7.45;;;2.20;;
32108;SDS011;18624;50.042;8.436;2023-02-01T15:02:53;5.70;;;2.75;;
32108;SDS011;18624;50.042;8.436;2023-02-01T15:05:29;5.00;;;1.90;;
32108;SDS011;18624;50.042;8.436;2023-02-01T15:08:00;9.10;;;2.33;;
32108;SDS011;18624;50.042;8.436;2023-02-01T15:10:33;9.88;;;1.85;;
32108;SDS011;18624;50.042;8.436;2023-02-01T15:13:17;9.43;;;2.30;;
32108;SDS011;18624;50.042;8.436;2023-02-01T15:16:05;7.18;;;2.05;;
32108;SDS011;18624;50.042;8.436;2023-02-01T15:18:39;7.95;;;2.30;;
32108;SDS011;18624;50.042;8.436;2023-02-01T15:21:15;9.15;;;2.15;;
32108;SDS011;18624;50.042;8.436;2023-02-01T15:24:10;6.45;;;2.13;;
32108;SDS011;18624;50.042;8.436;2023-02-01T15:26:45;6.10;;;2.22;;
32108;SDS011;18624;50.042;8.436;2023-02-01T15:29:12;6.57;;;2.40;;
32108;SDS011;18624;50.042;8.436;2023-02-01T15:31:41;13.77;;;3.03;;
32108;SDS011;18624;50.042;8.436;2023-02-01T15:34:11;11.18;;;3.17;;
32108;SDS011;18624;50.042;8.436;2023-02-01T15:36:38;15.90;;;3.53;;
32108;SDS011;18624;50.042;8.436;2023-02-01T15:39:21;7.43;;;1.92;;
32108;SDS011;18624;50.042;8.436;2023-02-01T15:44:27;7.03;;;2.13;;
32108;SDS011;18624;50.042;8.436;2023-02-01T15:46:58;8.73;;;2.72;;
32108;SDS011;18624;50.042;8.436;2023-02-01T15:51:52;6.80;;;1.73;;
32108;SDS011;18624;50.042;8.436;2023-02-01T15:54:24;10.00;;;3.45;;
32108;SDS011;18624;50.042;8.436;2023-02-01T15:56:57;14.93;;;3.33;;
32108;SDS011;18624;50.042;8.436;2023-02-01T16:00:28;7.50;;;2.15;;
32108;SDS011;18624;50.042;8.436;2023-02-01T16:02:29;11.40;;;2.45;;
32108;SDS011;18624;50.042;8.436;2023-02-01T16:05:01;9.75;;;2.25;;
32108;SDS011;18624;50.042;8.436;2023-02-01T16:07:30;5.78;;;2.28;;
32108;SDS011;18624;50.042;8.436;2023-02-01T16:09:58;7.55;;;2.47;;
32108;SDS011;18624;50.042;8.436;2023-02-01T16:12:33;11.15;;;2.58;;
32108;SDS011;18624;50.042;8.436;2023-02-01T16:15:13;9.07;;;2.30;;
32108;SDS011;18624;50.042;8.436;2023-02-01T16:17:40;8.68;;;2.38;;
32108;SDS011;18624;50.042;8.436;2023-02-01T16:20:07;8.18;;;2.95;;
32108;SDS011;18624;50.042;8.436;2023-02-01T16:22:35;11.30;;;3.78;;
32108;SDS011;18624;50.042;8.436;2023-02-01T16:25:01;11.38;;;3.22;;
32108;SDS011;18624;50.042;8.436;2023-02-01T16:27:28;5.78;;;2.05;;
32108;SDS011;18624;50.042;8.436;2023-02-01T16:29:55;10.32;;;2.92;;
32108;SDS011;18624;50.042;8.436;2023-02-01T16:32:22;10.60;;;2.47;;
32108;SDS011;18624;50.042;8.436;2023-02-01T16:34:49;6.57;;;2.90;;
32108;SDS011;18624;50.042;8.436;2023-02-01T16:37:18;9.65;;;2.80;;
32108;SDS011;18624;50.042;8.436;2023-02-01T16:39:47;7.95;;;2.97;;
32108;SDS011;18624;50.042;8.436;2023-02-01T16:42:14;8.88;;;2.88;;
32108;SDS011;18624;50.042;8.436;2023-02-01T16:44:42;8.00;;;2.72;;
32108;SDS011;18624;50.042;8.436;2023-02-01T16:47:15;11.05;;;4.10;;
32108;SDS011;18624;50.042;8.436;2023-02-01T16:49:49;9.07;;;3.88;;
32108;SDS011;18624;50.042;8.436;2023-02-01T16:52:23;10.00;;;3.75;;
32108;SDS011;18624;50.042;8.436;2023-02-01T16:54:51;7.72;;;3.08;;
32108;SDS011;18624;50.042;8.436;2023-02-01T16:57:19;7.28;;;2.22;;
32108;SDS011;18624;50.042;8.436;2023-02-01T16:59:48;8.10;;;2.33;;
32108;SDS011;18624;50.042;8.436;2023-02-01T17:02:17;10.35;;;4.65;;
32108;SDS011;18624;50.042;8.436;2023-02-01T17:04:45;10.65;;;3.33;;
32108;SDS011;18624;50.042;8.436;2023-02-01T17:07:12;5.28;;;2.30;;
32108;SDS011;18624;50.042;8.436;2023-02-01T17:09:40;9.07;;;4.72;;
32108;SDS011;18624;50.042;8.436;2023-02-01T17:12:09;8.43;;;2.53;;
32108;SDS011;18624;50.042;8.436;2023-02-01T17:14:46;7.18;;;2.60;;
32108;SDS011;18624;50.042;8.436;2023-02-01T17:17:12;6.50;;;2.85;;
32108;SDS011;18624;50.042;8.436;2023-02-01T17:19:42;10.00;;;2.13;;
32108;SDS011;18624;50.042;8.436;2023-02-01T17:22:12;10.98;;;3.13;;
32108;SDS011;18624;50.042;8.436;2023-02-01T17:24:39;10.25;;;2.70;;
32108;SDS011;18624;50.042;8.436;2023-02-01T17:27:14;6.57;;;2.53;;
32108;SDS011;18624;50.042;8.436;2023-02-01T17:29:41;6.63;;;2.67;;
32108;SDS011;18624;50.042;8.436;2023-02-01T17:32:14;6.15;;;2.75;;
32108;SDS011;18624;50.042;8.436;2023-02-01T17:34:45;10.32;;;2.50;;
32108;SDS011;18624;50.042;8.436;2023-02-01T17:37:18;10.85;;;2.95;;
32108;SDS011;18624;50.042;8.436;2023-02-01T17:39:48;6.43;;;2.40;;
32108;SDS011;18624;50.042;8.436;2023-02-01T17:42:22;7.13;;;2.63;;
32108;SDS011;18624;50.042;8.436;2023-02-01T17:44:58;6.45;;;1.75;;